sensor_id;sensor_type;location;lat;lon;timestamp;pressure;altitude;pressure_sealevel;temperature;humidity
84134;BME280;74235;48.688;9.708;2024-01-11T00:01:31;98456.78;;;21.12;31.24
84134;BME280;74235;48.688;9.708;2024-01-11T00:03:58;98454.06;;;21.12;30.22
84134;BME280;74235;48.688;9.708;2024-01-11T00:06:27;98459.47;;;21.12;30.04
84134;BME280;74235;48.688;9.708;2024-01-11T00:08:55;98458.41;;;21.13;30.58
84134;BME280;74235;48.688;9.708;2024-01-11T00:11:22;98463.25;;;21.11;30.78
84134;BME280;74235;48.688;9.708;2024-01-11T00:13:50;98467.56;;;21.12;31.50
84134;BME280;74235;48.688;9.708;2024-01-11T00:16:18;98464.09;;;21.11;30.14
84134;BME280;74235;48.688;9.708;2024-01-11T00:18:45;98463.25;;;21.11;30.55
84134;BME280;74235;48.688;9.708;2024-01-11T00:21:13;98474.06;;;21.11;31.56
84134;BME280;74235;48.688;9.708;2024-01-11T00:23:42;98460.56;;;21.11;31.69
84134;BME280;74235;48.688;9.708;2024-01-11T00:26:12;98473.25;;;21.10;31.41
84134;BME280;74235;48.688;9.708;2024-01-11T00:28:39;98469.75;;;21.10;29.98
84134;BME280;74235;48.688;9.708;2024-01-11T00:31:07;98472.44;;;21.10;29.96
84134;BME280;74235;48.688;9.708;2024-01-11T00:33:34;98477.84;;;21.10;29.91
84134;BME280;74235;48.688;9.708;2024-01-11T00:36:03;98479.97;;;21.08;30.56
84134;BME280;74235;48.688;9.708;2024-01-11T00:38:31;98473.50;;;21.09;31.01
84134;BME280;74235;48.688;9.708;2024-01-11T00:41:00;98476.19;;;21.09;31.27
84134;BME280;74235;48.688;9.708;2024-01-11T00:43:28;98479.97;;;21.08;31.19
84134;BME280;74235;48.688;9.708;2024-01-11T00:45:55;98479.97;;;21.08;29.86
84134;BME280;74235;48.688;9.708;2024-01-11T00:48:23;98475.66;;;21.07;30.54
84134;BME280;74235;48.688;9.708;2024-01-11T00:50:50;98472.13;;;21.06;31.61
84134;BME280;74235;48.688;9.708;2024-01-11T00:53:18;98472.69;;;21.08;31.48
84134;BME280;74235;48.688;9.708;2024-01-11T00:55:46;98465.69;;;21.07;30.17
84134;BME280;74235;48.688;9.708;2024-01-11T00:58:14;98466.47;;;21.08;30.76
84134;BME280;74235;48.688;9.708;2024-01-11T01:00:42;98457.59;;;21.07;30.49
84134;BME280;74235;48.688;9.708;2024-01-11T01:03:10;98457.59;;;21.07;30.70
84134;BME280;74235;48.688;9.708;2024-01-11T01:05:37;98472.97;;;21.07;31.53
84134;BME280;74235;48.688;9.708;2024-01-11T01:08:05;98474.59;;;21.08;30.98
84134;BME280;74235;48.688;9.708;2024-01-11T01:10:33;98472.97;;;21.07;31.65
84134;BME280;74235;48.688;9.708;2024-01-11T01:13:00;98472.13;;;21.06;31.41
84134;BME280;74235;48.688;9.708;2024-01-11T01:15:29;98477.53;;;21.06;31.65
84134;BME280;74235;48.688;9.708;2024-01-11T01:17:57;98469.69;;;21.05;31.06
84134;BME280;74235;48.688;9.708;2024-01-11T01:20:25;98465.13;;;21.05;31.54
84134;BME280;74235;48.688;9.708;2024-01-11T01:22:53;98468.66;;;21.06;31.36
84134;BME280;74235;48.688;9.708;2024-01-11T01:25:23;98462.69;;;21.04;29.88
84134;BME280;74235;48.688;9.708;2024-01-11T01:27:51;98470.53;;;21.05;31.66
84134;BME280;74235;48.688;9.708;2024-01-11T01:30:18;98470.53;;;21.05;30.98
84134;BME280;74235;48.688;9.708;2024-01-11T01:32:47;98470.78;;;21.04;31.50
84134;BME280;74235;48.688;9.708;2024-01-11T01:35:15;98481.31;;;21.05;31.08
84134;BME280;74235;48.688;9.708;2024-01-11T01:37:43;98480.50;;;21.05;30.11
84134;BME280;74235;48.688;9.708;2024-01-11T01:40:11;98474.31;;;21.04;31.04
84134;BME280;74235;48.688;9.708;2024-01-11T01:42:41;98486.19;;;21.03;30.21
84134;BME280;74235;48.688;9.708;2024-01-11T01:45:09;98484.28;;;21.04;31.44
84134;BME280;74235;48.688;9.708;2024-01-11T01:47:37;98487.25;;;21.02;31.20
84134;BME280;74235;48.688;9.708;2024-01-11T01:50:10;98497.78;;;21.04;30.03
84134;BME280;74235;48.688;9.708;2024-01-11T01:52:40;98503.44;;;21.02;29.90
84134;BME280;74235;48.688;9.708;2024-01-11T01:55:10;98503.44;;;21.02;31.14
84134;BME280;74235;48.688;9.708;2024-01-11T01:57:40;98504.53;;;21.01;30.33
84134;BME280;74235;48.688;9.708;2024-01-11T02:00:10;98503.44;;;21.02;31.40
84134;BME280;74235;48.688;9.708;2024-01-11T02:02:50;98508.06;;;21.02;31.41
84134;BME280;74235;48.688;9.708;2024-01-11T02:05:19;98503.44;;;21.02;29.95
84134;BME280;74235;48.688;9.708;2024-01-11T02:07:47;98514.25;;;21.02;30.23
84134;BME280;74235;48.688;9.708;2024-01-11T02:10:15;98506.41;;;21.01;30.61
84134;BME280;74235;48.688;9.708;2024-01-11T02:12:43;98514.50;;;21.01;31.76
84134;BME280;74235;48.688;9.708;2024-01-11T02:15:11;98509.13;;;21.01;31.82
84134;BME280;74235;48.688;9.708;2024-01-11T02:17:39;98506.41;;;21.01;30.84
84134;BME280;74235;48.688;9.708;2024-01-11T02:20:08;98502.09;;;21.00;31.05
84134;BME280;74235;48.688;9.708;2024-01-11T02:22:38;98509.94;;;21.01;30.79
84134;BME280;74235;48.688;9.708;2024-01-11T02:25:09;98517.22;;;21.01;31.41
84134;BME280;74235;48.688;9.708;2024-01-11T02:27:46;98512.91;;;21.00;30.74
84134;BME280;74235;48.688;9.708;2024-01-11T02:30:15;98512.06;;;20.99;31.82
84134;BME280;74235;48.688;9.708;2024-01-11T02:32:43;98507.50;;;21.00;30.26
84134;BME280;74235;48.688;9.708;2024-01-11T02:35:14;98512.38;;;20.98;31.10
84134;BME280;74235;48.688;9.708;2024-01-11T02:37:43;98507.75;;;20.98;30.38
84134;BME280;74235;48.688;9.708;2024-01-11T02:40:13;98506.41;;;20.96;29.90
84134;BME280;74235;48.688;9.708;2024-01-11T02:42:41;98515.59;;;21.00;31.04
84134;BME280;74235;48.688;9.708;2024-01-11T02:45:10;98503.19;;;20.99;30.44
84134;BME280;74235;48.688;9.708;2024-01-11T02:47:38;98509.66;;;20.98;31.13
84134;BME280;74235;48.688;9.708;2024-01-11T02:50:07;98515.84;;;20.98;30.92
84134;BME280;74235;48.688;9.708;2024-01-11T02:52:35;98512.38;;;20.98;31.06
84134;BME280;74235;48.688;9.708;2024-01-11T02:55:03;98511.53;;;20.97;30.75
84134;BME280;74235;48.688;9.708;2024-01-11T02:57:32;98515.31;;;20.96;30.88
84134;BME280;74235;48.688;9.708;2024-01-11T03:00:00;98505.31;;;20.97;30.14
84134;BME280;74235;48.688;9.708;2024-01-11T03:02:28;98506.97;;;20.98;31.33
84134;BME280;74235;48.688;9.708;2024-01-11T03:04:56;98504.25;;;20.98;31.43
84134;BME280;74235;48.688;9.708;2024-01-11T03:07:23;98500.75;;;20.97;29.93
84134;BME280;74235;48.688;9.708;2024-01-11T03:09:51;98501.00;;;20.96;31.30
84134;BME280;74235;48.688;9.708;2024-01-11T03:12:19;98492.91;;;20.96;30.31
84134;BME280;74235;48.688;9.708;2024-01-11T03:14:48;98498.28;;;20.96;30.51
84134;BME280;74235;48.688;9.708;2024-01-11T03:17:16;98490.19;;;20.96;31.75
84134;BME280;74235;48.688;9.708;2024-01-11T03:19:43;98490.19;;;20.96;31.14
84134;BME280;74235;48.688;9.708;2024-01-11T03:22:11;98489.38;;;20.95;31.42
84134;BME280;74235;48.688;9.708;2024-01-11T03:24:39;98480.47;;;20.95;31.81
84134;BME280;74235;48.688;9.708;2024-01-11T03:27:07;98486.66;;;20.95;30.73
84134;BME280;74235;48.688;9.708;2024-01-11T03:29:34;98469.69;;;20.95;30.47
84134;BME280;74235;48.688;9.708;2024-01-11T03:32:04;98468.03;;;20.94;31.50
84134;BME280;74235;48.688;9.708;2024-01-11T03:34:32;98485.06;;;20.94;31.47
84134;BME280;74235;48.688;9.708;2024-01-11T03:37:00;98481.53;;;20.94;30.37
84134;BME280;74235;48.688;9.708;2024-01-11T03:39:27;98483.44;;;20.93;30.05
84134;BME280;74235;48.688;9.708;2024-01-11T03:41:55;98470.72;;;20.94;30.92
84134;BME280;74235;48.688;9.708;2024-01-11T03:44:23;98469.69;;;20.95;30.60
84134;BME280;74235;48.688;9.708;2024-01-11T03:46:50;98474.25;;;20.94;31.43
84134;BME280;74235;48.688;9.708;2024-01-11T03:49:20;98473.44;;;20.94;30.37
84134;BME280;74235;48.688;9.708;2024-01-11T03:51:48;98471.81;;;20.93;31.81
84134;BME280;74235;48.688;9.708;2024-01-11T03:54:15;98468.03;;;20.94;30.38
84134;BME280;74235;48.688;9.708;2024-01-11T03:56:43;98461.00;;;20.93;31.71
84134;BME280;74235;48.688;9.708;2024-01-11T03:59:10;98466.41;;;20.93;31.56
84134;BME280;74235;48.688;9.708;2024-01-11T04:01:39;98463.72;;;20.93;31.38
84134;BME280;74235;48.688;9.708;2024-01-11T04:04:07;98464.75;;;20.92;30.33
84134;BME280;74235;48.688;9.708;2024-01-11T04:06:36;98460.22;;;20.92;30.93
84134;BME280;74235;48.688;9.708;2024-01-11T04:09:04;98462.31;;;20.90;31.29
84134;BME280;74235;48.688;9.708;2024-01-11T04:11:31;98461.00;;;20.93;31.09
84134;BME280;74235;48.688;9.708;2024-01-11T04:13:59;98465.63;;;20.92;31.47
84134;BME280;74235;48.688;9.708;2024-01-11T04:16:26;98474.50;;;20.93;30.66
84134;BME280;74235;48.688;9.708;2024-01-11T04:18:54;98469.34;;;20.91;30.71
84134;BME280;74235;48.688;9.708;2024-01-11T04:21:22;98480.97;;;20.92;31.79
84134;BME280;74235;48.688;9.708;2024-01-11T04:23:51;98480.13;;;20.91;30.68
84134;BME280;74235;48.688;9.708;2024-01-11T04:26:19;98480.13;;;20.91;30.83
84134;BME280;74235;48.688;9.708;2024-01-11T04:28:47;98484.75;;;20.91;30.42
84134;BME280;74235;48.688;9.708;2024-01-11T04:31:15;98473.94;;;20.91;30.71
84134;BME280;74235;48.688;9.708;2024-01-11T04:33:46;98479.91;;;20.93;30.78
84134;BME280;74235;48.688;9.708;2024-01-11T04:36:14;98465.84;;;20.91;31.79
84134;BME280;74235;48.688;9.708;2024-01-11T04:38:42;98473.94;;;20.91;31.79
84134;BME280;74235;48.688;9.708;2024-01-11T04:41:12;98478.25;;;20.92;30.65
84134;BME280;74235;48.688;9.708;2024-01-11T04:43:40;98475.56;;;20.92;29.99
84134;BME280;74235;48.688;9.708;2024-01-11T04:46:13;98469.34;;;20.91;31.47
84134;BME280;74235;48.688;9.708;2024-01-11T04:48:41;98479.34;;;20.91;31.41
84134;BME280;74235;48.688;9.708;2024-01-11T04:51:09;98476.09;;;20.89;31.17
84134;BME280;74235;48.688;9.708;2024-01-11T04:53:37;98473.94;;;20.91;30.20
84134;BME280;74235;48.688;9.708;2024-01-11T04:56:06;98465.84;;;20.91;31.41
84134;BME280;74235;48.688;9.708;2024-01-11T04:58:39;98472.28;;;20.90;30.05
84134;BME280;74235;48.688;9.708;2024-01-11T05:01:07;98466.09;;;20.89;31.50
84134;BME280;74235;48.688;9.708;2024-01-11T05:03:35;98474.47;;;20.88;31.55
84134;BME280;74235;48.688;9.708;2024-01-11T05:06:03;98468.53;;;20.91;30.78
84134;BME280;74235;48.688;9.708;2024-01-11T05:08:30;98482.03;;;20.91;30.53
84134;BME280;74235;48.688;9.708;2024-01-11T05:10:58;98479.34;;;20.91;31.69
84134;BME280;74235;48.688;9.708;2024-01-11T05:13:26;98473.94;;;20.91;30.59
84134;BME280;74235;48.688;9.708;2024-01-11T05:15:54;98478.53;;;20.90;30.21
84134;BME280;74235;48.688;9.708;2024-01-11T05:18:22;98481.47;;;20.89;30.71
84134;BME280;74235;48.688;9.708;2024-01-11T05:20:50;98483.09;;;20.90;30.24
84134;BME280;74235;48.688;9.708;2024-01-11T05:23:17;98477.69;;;20.90;30.41
84134;BME280;74235;48.688;9.708;2024-01-11T05:25:45;98483.09;;;20.90;30.84
84134;BME280;74235;48.688;9.708;2024-01-11T05:28:12;98474.47;;;20.88;30.30
84134;BME280;74235;48.688;9.708;2024-01-11T05:30:40;98477.69;;;20.90;31.91
84134;BME280;74235;48.688;9.708;2024-01-11T05:33:10;98477.16;;;20.88;31.75
84134;BME280;74235;48.688;9.708;2024-01-11T05:35:37;98488.50;;;20.90;30.34
84134;BME280;74235;48.688;9.708;2024-01-11T05:38:05;98482.56;;;20.88;31.63
84134;BME280;74235;48.688;9.708;2024-01-11T05:40:33;98487.41;;;20.86;31.76
84134;BME280;74235;48.688;9.708;2024-01-11T05:43:00;98497.16;;;20.92;30.29
84134;BME280;74235;48.688;9.708;2024-01-11T05:45:28;98501.22;;;20.89;31.01
84134;BME280;74235;48.688;9.708;2024-01-11T05:48:15;98511.44;;;20.87;30.74
84134;BME280;74235;48.688;9.708;2024-01-11T05:50:43;98505.25;;;20.87;31.31
84134;BME280;74235;48.688;9.708;2024-01-11T05:53:11;98502.56;;;20.87;30.30
84134;BME280;74235;48.688;9.708;2024-01-11T05:55:39;98510.66;;;20.87;30.19
84134;BME280;74235;48.688;9.708;2024-01-11T05:58:06;98520.63;;;20.86;31.65
84134;BME280;74235;48.688;9.708;2024-01-11T06:00:34;98526.84;;;20.87;30.54
84134;BME280;74235;48.688;9.708;2024-01-11T06:03:02;98531.44;;;20.86;31.96
84134;BME280;74235;48.688;9.708;2024-01-11T06:05:31;98532.25;;;20.87;31.26
84134;BME280;74235;48.688;9.708;2024-01-11T06:07:59;98526.03;;;20.86;31.50
84134;BME280;74235;48.688;9.708;2024-01-11T06:10:27;98522.50;;;20.86;30.54
84134;BME280;74235;48.688;9.708;2024-01-11T06:12:54;98516.03;;;20.87;31.59
84134;BME280;74235;48.688;9.708;2024-01-11T06:15:23;98514.41;;;20.86;29.93
84134;BME280;74235;48.688;9.708;2024-01-11T06:17:51;98514.41;;;20.86;30.95
84134;BME280;74235;48.688;9.708;2024-01-11T06:20:19;98523.31;;;20.86;31.52
84134;BME280;74235;48.688;9.708;2024-01-11T06:22:48;98525.19;;;20.86;30.60
84134;BME280;74235;48.688;9.708;2024-01-11T06:25:16;98527.09;;;20.85;30.17
84134;BME280;74235;48.688;9.708;2024-01-11T06:27:44;98534.13;;;20.86;31.96
84134;BME280;74235;48.688;9.708;2024-01-11T06:30:12;98534.38;;;20.85;31.12
84134;BME280;74235;48.688;9.708;2024-01-11T06:32:39;98535.22;;;20.85;30.27
84134;BME280;74235;48.688;9.708;2024-01-11T06:35:08;98536.00;;;20.86;30.45
84134;BME280;74235;48.688;9.708;2024-01-11T06:37:36;98531.44;;;20.86;31.22
84134;BME280;74235;48.688;9.708;2024-01-11T06:40:05;98536.00;;;20.86;31.48
84134;BME280;74235;48.688;9.708;2024-01-11T06:42:35;98527.09;;;20.85;30.74
84134;BME280;74235;48.688;9.708;2024-01-11T06:45:03;98539.28;;;20.88;30.97
84134;BME280;74235;48.688;9.708;2024-01-11T06:47:31;98543.06;;;20.87;30.30
84134;BME280;74235;48.688;9.708;2024-01-11T06:49:59;98548.44;;;20.87;31.82
84134;BME280;74235;48.688;9.708;2024-01-11T06:52:27;98544.94;;;20.86;30.10
84134;BME280;74235;48.688;9.708;2024-01-11T06:54:55;98545.75;;;20.87;30.91
84134;BME280;74235;48.688;9.708;2024-01-11T06:57:24;98554.44;;;20.94;30.05
84134;BME280;74235;48.688;9.708;2024-01-11T06:59:52;98553.66;;;20.93;31.79
84134;BME280;74235;48.688;9.708;2024-01-11T07:02:20;98548.56;;;21.53;31.38
84134;BME280;74235;48.688;9.708;2024-01-11T07:04:47;98542.28;;;22.69;29.21
84134;BME280;74235;48.688;9.708;2024-01-11T07:07:15;98541.50;;;23.63;28.46
84134;BME280;74235;48.688;9.708;2024-01-11T07:09:43;98520.34;;;24.18;27.84
84134;BME280;74235;48.688;9.708;2024-01-11T07:12:12;98552.06;;;24.56;27.14
84134;BME280;74235;48.688;9.708;2024-01-11T07:14:42;98539.25;;;24.95;26.67
84134;BME280;74235;48.688;9.708;2024-01-11T07:17:10;98547.59;;;25.27;26.31
84134;BME280;74235;48.688;9.708;2024-01-11T07:19:37;98547.97;;;25.44;27.17
84134;BME280;74235;48.688;9.708;2024-01-11T07:22:05;98542.94;;;25.56;26.24
84134;BME280;74235;48.688;9.708;2024-01-11T07:24:33;98533.06;;;25.42;25.19
84134;BME280;74235;48.688;9.708;2024-01-11T07:27:06;98536.09;;;25.35;23.80
84134;BME280;74235;48.688;9.708;2024-01-11T07:29:34;98544.38;;;25.25;25.25
84134;BME280;74235;48.688;9.708;2024-01-11T07:32:03;98550.47;;;25.12;24.07
84134;BME280;74235;48.688;9.708;2024-01-11T07:34:31;98548.19;;;24.96;24.22
84134;BME280;74235;48.688;9.708;2024-01-11T07:37:00;98554.03;;;24.84;23.73
84134;BME280;74235;48.688;9.708;2024-01-11T07:39:28;98564.31;;;24.87;24.40
84134;BME280;74235;48.688;9.708;2024-01-11T07:41:58;98568.69;;;24.88;23.94
84134;BME280;74235;48.688;9.708;2024-01-11T07:44:26;98569.25;;;24.85;24.45
84134;BME280;74235;48.688;9.708;2024-01-11T07:46:53;98567.94;;;24.78;24.33
84134;BME280;74235;48.688;9.708;2024-01-11T07:49:26;98556.56;;;24.76;24.67
84134;BME280;74235;48.688;9.708;2024-01-11T07:51:54;98567.94;;;24.78;23.64
84134;BME280;74235;48.688;9.708;2024-01-11T07:54:22;98569.47;;;24.55;24.74
84134;BME280;74235;48.688;9.708;2024-01-11T07:56:49;98561.72;;;24.39;24.20
84134;BME280;74235;48.688;9.708;2024-01-11T07:59:17;98570.53;;;24.21;24.88
84134;BME280;74235;48.688;9.708;2024-01-11T08:01:45;98581.25;;;23.97;24.83
84134;BME280;74235;48.688;9.708;2024-01-11T08:04:12;98592.75;;;23.74;26.33
84134;BME280;74235;48.688;9.708;2024-01-11T08:06:42;98597.69;;;23.57;25.85
84134;BME280;74235;48.688;9.708;2024-01-11T08:09:09;98609.66;;;23.41;26.49
84134;BME280;74235;48.688;9.708;2024-01-11T08:11:38;98621.09;;;23.28;25.40
84134;BME280;74235;48.688;9.708;2024-01-11T08:14:10;98618.94;;;23.10;26.86
84134;BME280;74235;48.688;9.708;2024-01-11T08:16:37;98614.59;;;22.94;25.89
84134;BME280;74235;48.688;9.708;2024-01-11T08:19:05;98612.69;;;22.84;25.78
84134;BME280;74235;48.688;9.708;2024-01-11T08:21:33;98618.41;;;22.73;26.57
84134;BME280;74235;48.688;9.708;2024-01-11T08:24:02;98617.84;;;22.66;26.27
84134;BME280;74235;48.688;9.708;2024-01-11T08:26:30;98631.41;;;22.66;26.41
84134;BME280;74235;48.688;9.708;2024-01-11T08:28:58;98627.59;;;22.72;28.50
84134;BME280;74235;48.688;9.708;2024-01-11T08:31:26;98624.06;;;22.81;27.26
84134;BME280;74235;48.688;9.708;2024-01-11T08:33:54;98629.50;;;22.96;28.38
84134;BME280;74235;48.688;9.708;2024-01-11T08:36:21;98640.88;;;23.13;27.73
84134;BME280;74235;48.688;9.708;2024-01-11T08:38:49;98640.59;;;23.30;27.51
84134;BME280;74235;48.688;9.708;2024-01-11T08:41:18;98634.88;;;23.36;27.39
84134;BME280;74235;48.688;9.708;2024-01-11T08:43:46;98633.22;;;23.50;28.39
84134;BME280;74235;48.688;9.708;2024-01-11T08:46:23;98635.94;;;23.61;28.31
84134;BME280;74235;48.688;9.708;2024-01-11T08:48:51;98633.97;;;23.71;27.43
84134;BME280;74235;48.688;9.708;2024-01-11T08:51:19;98639.91;;;23.83;28.01
84134;BME280;74235;48.688;9.708;2024-01-11T08:53:46;98638.25;;;23.87;26.74
84134;BME280;74235;48.688;9.708;2024-01-11T08:56:14;98639.91;;;23.93;27.00
84134;BME280;74235;48.688;9.708;2024-01-11T08:58:45;98630.66;;;23.94;27.04
84134;BME280;74235;48.688;9.708;2024-01-11T09:01:14;98628.50;;;23.86;27.76
84134;BME280;74235;48.688;9.708;2024-01-11T09:03:42;98627.72;;;23.81;26.86
84134;BME280;74235;48.688;9.708;2024-01-11T09:06:10;98619.88;;;23.74;27.59
84134;BME280;74235;48.688;9.708;2024-01-11T09:08:38;98619.34;;;23.67;28.70
84134;BME280;74235;48.688;9.708;2024-01-11T09:11:08;98620.47;;;23.56;28.92
84134;BME280;74235;48.688;9.708;2024-01-11T09:13:38;98613.19;;;23.46;28.08
84134;BME280;74235;48.688;9.708;2024-01-11T09:16:09;98626.47;;;23.38;29.38
84134;BME280;74235;48.688;9.708;2024-01-11T09:18:37;98634.66;;;23.28;29.82
84134;BME280;74235;48.688;9.708;2024-01-11T09:21:05;98632.72;;;23.13;30.65
84134;BME280;74235;48.688;9.708;2024-01-11T09:23:32;98623.28;;;23.06;29.61
84134;BME280;74235;48.688;9.708;2024-01-11T09:26:02;98633.56;;;22.99;31.12
84134;BME280;74235;48.688;9.708;2024-01-11T09:28:30;98632.47;;;22.90;30.13
84134;BME280;74235;48.688;9.708;2024-01-11T09:30:58;98625.97;;;22.86;30.03
84134;BME280;74235;48.688;9.708;2024-01-11T09:33:29;98642.25;;;22.81;30.17
84134;BME280;74235;48.688;9.708;2024-01-11T09:35:57;98648.72;;;22.75;29.86
84134;BME280;74235;48.688;9.708;2024-01-11T09:38:24;98651.69;;;22.73;32.14
84134;BME280;74235;48.688;9.708;2024-01-11T09:40:59;98641.16;;;22.67;30.81
84134;BME280;74235;48.688;9.708;2024-01-11T09:43:31;98648.19;;;22.68;31.63
84134;BME280;74235;48.688;9.708;2024-01-11T09:46:04;98643.84;;;22.67;30.35
84134;BME280;74235;48.688;9.708;2024-01-11T09:48:35;98639.53;;;22.76;32.08
84134;BME280;74235;48.688;9.708;2024-01-11T09:51:04;98635.22;;;22.80;31.90
84134;BME280;74235;48.688;9.708;2024-01-11T09:53:32;98641.69;;;22.89;30.27
84134;BME280;74235;48.688;9.708;2024-01-11T09:56:00;98641.69;;;23.04;30.88
84134;BME280;74235;48.688;9.708;2024-01-11T09:58:29;98637.63;;;23.16;30.76
84134;BME280;74235;48.688;9.708;2024-01-11T10:00:57;98644.94;;;23.31;31.04
84134;BME280;74235;48.688;9.708;2024-01-11T10:03:26;98643.81;;;23.42;30.05
84134;BME280;74235;48.688;9.708;2024-01-11T10:05:58;98642.19;;;23.51;30.76
84134;BME280;74235;48.688;9.708;2024-01-11T10:08:27;98641.59;;;23.64;30.58
84134;BME280;74235;48.688;9.708;2024-01-11T10:10:56;98631.28;;;23.71;29.66
84134;BME280;74235;48.688;9.708;2024-01-11T10:13:27;98635.06;;;23.80;29.62
84134;BME280;74235;48.688;9.708;2024-01-11T10:16:05;98623.91;;;23.87;30.00
84134;BME280;74235;48.688;9.708;2024-01-11T10:18:34;98627.97;;;23.79;28.71
84134;BME280;74235;48.688;9.708;2024-01-11T10:21:03;98623.16;;;23.61;27.45
84134;BME280;74235;48.688;9.708;2024-01-11T10:23:33;98614.56;;;23.44;27.50
84134;BME280;74235;48.688;9.708;2024-01-11T10:26:01;98620.53;;;23.31;28.31
84134;BME280;74235;48.688;9.708;2024-01-11T10:28:29;98608.31;;;23.18;28.61
84134;BME280;74235;48.688;9.708;2024-01-11T10:30:57;98601.56;;;23.11;27.50
84134;BME280;74235;48.688;9.708;2024-01-11T10:33:26;98598.31;;;23.04;28.77
84134;BME280;74235;48.688;9.708;2024-01-11T10:35:54;98590.22;;;22.94;29.21
84134;BME280;74235;48.688;9.708;2024-01-11T10:38:24;98591.31;;;22.88;28.51
84134;BME280;74235;48.688;9.708;2024-01-11T10:40:53;98594.56;;;22.85;28.67
84134;BME280;74235;48.688;9.708;2024-01-11T10:43:22;98595.09;;;22.82;29.80
84134;BME280;74235;48.688;9.708;2024-01-11T10:45:52;98589.13;;;22.75;30.28
84134;BME280;74235;48.688;9.708;2024-01-11T10:48:25;98593.75;;;22.74;29.04
84134;BME280;74235;48.688;9.708;2024-01-11T10:50:54;98600.25;;;22.73;29.45
84134;BME280;74235;48.688;9.708;2024-01-11T10:53:31;98602.69;;;22.80;29.11
84134;BME280;74235;48.688;9.708;2024-01-11T10:56:03;98601.34;;;22.72;27.26
84134;BME280;74235;48.688;9.708;2024-01-11T10:58:33;98601.06;;;22.89;28.98
84134;BME280;74235;48.688;9.708;2024-01-11T11:01:02;98600.47;;;23.12;27.69
84134;BME280;74235;48.688;9.708;2024-01-11T11:03:33;98595.84;;;23.32;28.76
84134;BME280;74235;48.688;9.708;2024-01-11T11:06:02;98595.03;;;23.42;28.09
84134;BME280;74235;48.688;9.708;2024-01-11T11:08:33;98600.38;;;23.57;29.30
84134;BME280;74235;48.688;9.708;2024-01-11T11:11:02;98606.38;;;23.59;29.19
84134;BME280;74235;48.688;9.708;2024-01-11T11:13:34;98615.84;;;23.62;29.13
84134;BME280;74235;48.688;9.708;2024-01-11T11:16:06;98610.16;;;23.63;28.14
84134;BME280;74235;48.688;9.708;2024-01-11T11:18:34;98610.19;;;23.58;29.21
84134;BME280;74235;48.688;9.708;2024-01-11T11:21:08;98600.50;;;23.22;28.67
84134;BME280;74235;48.688;9.708;2024-01-11T11:23:38;98607.56;;;23.03;30.11
84134;BME280;74235;48.688;9.708;2024-01-11T11:26:06;98598.91;;;22.81;30.29
84134;BME280;74235;48.688;9.708;2024-01-11T11:28:36;98604.31;;;22.71;29.68
84134;BME280;74235;48.688;9.708;2024-01-11T11:31:04;98611.88;;;22.64;29.95
84134;BME280;74235;48.688;9.708;2024-01-11T11:33:31;98615.41;;;22.54;30.11
84134;BME280;74235;48.688;9.708;2024-01-11T11:36:00;98609.16;;;22.49;30.88
84134;BME280;74235;48.688;9.708;2024-01-11T11:38:29;98616.19;;;22.40;31.55
84134;BME280;74235;48.688;9.708;2024-01-11T11:40:59;98601.00;;;22.29;30.48
84134;BME280;74235;48.688;9.708;2024-01-11T11:43:28;98602.06;;;22.23;30.94
84134;BME280;74235;48.688;9.708;2024-01-11T11:45:57;98590.97;;;22.19;30.99
84134;BME280;74235;48.688;9.708;2024-01-11T11:48:50;98590.69;;;22.16;31.57
84134;BME280;74235;48.688;9.708;2024-01-11T11:51:19;98578.25;;;22.10;30.76
84134;BME280;74235;48.688;9.708;2024-01-11T11:53:50;98576.59;;;22.09;32.39
84134;BME280;74235;48.688;9.708;2024-01-11T11:56:21;98575.25;;;22.06;33.10
84134;BME280;74235;48.688;9.708;2024-01-11T11:58:49;98580.91;;;22.05;32.34
84134;BME280;74235;48.688;9.708;2024-01-11T12:01:19;98581.47;;;22.07;33.19
84134;BME280;74235;48.688;9.708;2024-01-11T12:03:48;98585.25;;;22.06;33.65
84134;BME280;74235;48.688;9.708;2024-01-11T12:06:20;98572.53;;;22.06;33.10
84134;BME280;74235;48.688;9.708;2024-01-11T12:08:52;98551.97;;;22.05;32.66
84134;BME280;74235;48.688;9.708;2024-01-11T12:11:25;98552.50;;;22.02;33.04
84134;BME280;74235;48.688;9.708;2024-01-11T12:13:54;98559.53;;;22.03;32.35
84134;BME280;74235;48.688;9.708;2024-01-11T12:16:23;98566.84;;;22.03;32.01
84134;BME280;74235;48.688;9.708;2024-01-11T12:18:51;98556.03;;;22.03;31.73
84134;BME280;74235;48.688;9.708;2024-01-11T12:21:19;98548.72;;;22.03;32.47
84134;BME280;74235;48.688;9.708;2024-01-11T12:23:47;98540.88;;;22.02;32.05
84134;BME280;74235;48.688;9.708;2024-01-11T12:26:16;98537.63;;;22.00;33.76
84134;BME280;74235;48.688;9.708;2024-01-11T12:28:52;98545.47;;;22.01;33.29
84134;BME280;74235;48.688;9.708;2024-01-11T12:31:21;98537.09;;;22.03;31.88
84134;BME280;74235;48.688;9.708;2024-01-11T12:33:49;98536.00;;;21.99;31.87
84134;BME280;74235;48.688;9.708;2024-01-11T12:36:17;98542.22;;;21.99;31.93
84134;BME280;74235;48.688;9.708;2024-01-11T12:38:48;98542.22;;;21.99;33.87
84134;BME280;74235;48.688;9.708;2024-01-11T12:41:21;98539.78;;;21.98;33.06
84134;BME280;74235;48.688;9.708;2024-01-11T12:43:52;98536.28;;;21.97;32.19
84134;BME280;74235;48.688;9.708;2024-01-11T12:46:20;98539.25;;;21.96;33.93
84134;BME280;74235;48.688;9.708;2024-01-11T12:48:48;98541.13;;;21.95;32.08
84134;BME280;74235;48.688;9.708;2024-01-11T12:51:17;98548.19;;;21.96;33.03
84134;BME280;74235;48.688;9.708;2024-01-11T12:53:50;98543.03;;;21.95;33.53
84134;BME280;74235;48.688;9.708;2024-01-11T12:56:19;98537.59;;;21.90;33.74
84134;BME280;74235;48.688;9.708;2024-01-11T12:58:49;98529.47;;;21.90;32.90
84134;BME280;74235;48.688;9.708;2024-01-11T13:01:18;98533.28;;;21.89;33.96
84134;BME280;74235;48.688;9.708;2024-01-11T13:03:47;98526.81;;;22.00;33.62
84134;BME280;74235;48.688;9.708;2024-01-11T13:06:15;98520.91;;;22.53;32.62
84134;BME280;74235;48.688;9.708;2024-01-11T13:08:43;98527.94;;;22.84;30.47